Time;durP1;ratioP1;P1;durP2;ratioP2;P2;SDS_P1;SDS_P2;PMS_P1;PMS_P2;Temp;Humidity;BMP_temperature;BMP_pressure;BME280_temperature;BME280_humidity;BME280_pressure;Samples;Min_cycle;Max_cycle;Signal;HPM_P1;HPM_P2
2021/11/15 00:00:12;;;;;;;3.97;2.42;;;;;;;13.73;81.84;101032.69;4955470;29;20043;-66
2021/11/15 00:03:00;;;;;;;7.60;2.97;;;;;;;13.69;81.73;101027.88;4947920;28;20050;-64
2021/11/15 00:05:45;;;;;;;3.40;1.58;;;;;;;13.70;81.24;101025.94;4955639;29;20519;-64
2021/11/15 00:08:30;;;;;;;;;;;;;;;13.71;81.93;101025.59;4956207;29;20054;-63
2021/11/15 00:11:14;;;;;;;4.15;2.15;;;;;;;13.67;81.80;101018.41;4955718;29;19914;-64
2021/11/15 00:13:59;;;;;;;3.95;2.28;;;;;;;13.68;82.03;101014.53;4955854;29;20073;-64
2021/11/15 00:16:44;;;;;;;;;;;;;;;13.70;82.27;101015.81;4956176;29;20046;-67
2021/11/15 00:19:29;;;;;;;3.63;2.07;;;;;;;13.65;82.28;101009.75;4955734;29;19918;-65
2021/11/15 00:22:14;;;;;;;;;;;;;;;13.70;81.93;101007.63;4947919;29;20318;-64
2021/11/15 00:24:59;;;;;;;4.80;2.28;;;;;;;13.66;81.88;101001.19;4955509;29;19948;-63
2021/11/15 00:27:44;;;;;;;3.47;1.83;;;;;;;13.69;81.89;101014.22;4947864;28;20120;-64
2021/11/15 00:30:29;;;;;;;5.57;2.42;;;;;;;13.68;81.90;101009.06;4955496;29;20062;-63
2021/11/15 00:33:14;;;;;;;;;;;;;;;13.62;79.90;101004.91;4956070;29;20123;-64
2021/11/15 00:35:59;;;;;;;5.47;2.20;;;;;;;13.63;79.42;101018.25;4955346;29;20056;-64
2021/11/15 00:38:44;;;;;;;4.25;2.63;;;;;;;13.64;80.85;101017.13;4955426;29;20054;-64
2021/11/15 00:41:29;;;;;;;4.60;2.85;;;;;;;13.63;80.73;101033.84;4955118;29;20054;-66
2021/11/15 00:44:14;;;;;;;;;;;;;;;13.65;81.08;101026.94;4955736;29;20515;-66
2021/11/15 00:46:59;;;;;;;4.47;2.17;;;;;;;13.63;81.77;101017.44;4955289;29;19918;-65
2021/11/15 00:49:45;;;;;;;3.72;1.90;;;;;;;13.61;81.98;101027.94;4955204;29;20050;-65
2021/11/15 00:52:29;;;;;;;;;;;;;;;13.64;81.05;101025.34;4936293;29;20062;-65
2021/11/15 00:55:14;;;;;;;3.65;2.03;;;;;;;13.62;81.56;101029.50;4935905;29;19919;-65
2021/11/15 00:58:00;;;;;;;2.90;2.20;;;;;;;13.61;81.06;101025.97;4935831;29;20046;-65
2021/11/15 01:00:45;;;;;;;3.13;1.98;;;;;;;13.64;80.16;101025.34;4935857;29;20055;-65
2021/11/15 01:03:30;;;;;;;3.65;1.70;;;;;;;13.65;80.72;101026.94;4941116;29;20264;-65
2021/11/15 01:06:15;;;;;;;4.75;1.98;;;;;;;13.63;80.47;101023.72;4935693;29;20058;-65
2021/11/15 01:09:01;;;;;;;2.58;2.13;;;;;;;13.63;80.53;101029.19;4935487;29;20062;-65
2021/11/15 01:11:46;;;;;;;3.53;2.38;;;;;;;13.62;80.60;101024.03;4940970;29;20046;-66
2021/11/15 01:14:31;;;;;;;4.88;2.65;;;;;;;13.62;81.24;101026.78;4935509;29;20424;-65
2021/11/15 01:17:16;;;;;;;;;;;;;;;13.64;80.63;101025.34;4935854;29;20052;-65
2021/11/15 01:20:04;;;;;;;2.80;1.92;;;;;;;13.65;81.53;101026.94;4935457;29;19915;-65
2021/11/15 01:22:49;;;;;;;3.97;2.70;;;;;;;13.67;81.12;101016.47;4935294;29;20520;-65
2021/11/15 01:25:35;;;;;;;;;;;;;;;13.66;82.08;101012.13;4940314;29;20405;-66
2021/11/15 01:28:19;;;;;;;3.95;2.20;;;;;;;13.63;82.48;101018.25;4935324;29;19914;-65
2021/11/15 01:31:04;;;;;;;3.35;2.60;;;;;;;13.62;82.46;101011.19;4940725;29;20539;-65
2021/11/15 01:33:49;;;;;;;;;;;;;;;13.64;82.94;101014.41;4935689;29;20124;-66
2021/11/15 01:36:35;;;;;;;6.75;2.33;;;;;;;13.59;82.85;101011.84;4934073;29;19915;-65
2021/11/15 01:39:20;;;;;;;2.35;1.73;;;;;;;13.60;83.07;101027.13;4935060;29;20520;-66
2021/11/15 01:42:05;;;;;;;3.83;2.03;;;;;;;13.57;83.85;101019.56;4935007;29;20055;-66
2021/11/15 01:44:50;;;;;;;;;;;;;;;13.61;83.29;101027.94;4941890;29;20552;-65
2021/11/15 01:47:35;;;;;;;3.30;2.05;;;;;;;13.58;83.76;101021.16;4920577;29;19914;-64
2021/11/15 01:50:22;;;;;;;4.93;2.47;;;;;;;13.58;84.07;101023.91;4935078;29;20140;-64
2021/11/15 01:53:08;;;;;;;3.78;2.70;;;;;;;13.58;84.01;101021.16;4954708;28;20042;-64
2021/11/15 01:55:53;;;;;;;4.78;2.20;;;;;;;13.58;84.24;101020.38;4953972;29;20115;-64
2021/11/15 01:58:38;;;;;;;5.28;2.17;;;;;;;13.57;84.13;101019.56;4945937;28;20058;-64
2021/11/15 02:01:23;;;;;;;;;;;;;;;13.57;82.81;101016.81;4946191;28;20054;-64
2021/11/15 02:04:07;;;;;;;3.50;1.83;;;;;;;13.58;82.39;101012.97;4953876;29;20372;-64
2021/11/15 02:06:52;;;;;;;5.07;2.20;;;;;;;13.57;81.97;101003.16;4953821;29;20124;-63
2021/11/15 02:09:38;;;;;;;3.17;1.92;;;;;;;13.59;82.69;101005.59;4953915;29;20054;-63
2021/11/15 02:12:24;;;;;;;;;;;;;;;13.56;82.38;100987.91;4939761;29;20113;-64
2021/11/15 02:15:11;;;;;;;3.05;2.28;;;;;;;13.58;82.43;100987.56;4953858;29;19915;-64
2021/11/15 02:17:56;;;;;;;5.63;2.85;;;;;;;13.57;82.36;100986.78;4953798;29;20058;-63
2021/11/15 02:21:01;;;;;;;4.65;2.10;;;;;;;13.55;82.09;100989.06;4953749;29;20054;-63
2021/11/15 02:23:47;;;;;;;4.07;1.90;;;;;;;13.56;83.21;100992.59;4953789;29;20404;-65
2021/11/15 02:26:32;;;;;;;2.75;1.98;;;;;;;13.52;82.97;100983.41;4953669;29;20050;-63
2021/11/15 02:29:16;;;;;;;;;;;;;;;13.55;83.22;100986.31;4954141;29;20050;-63
2021/11/15 02:32:01;;;;;;;3.83;2.40;;;;;;;13.51;83.01;100977.16;4953716;29;20384;-64
2021/11/15 02:34:46;;;;;;;3.67;1.63;;;;;;;13.52;83.23;100978.75;4953657;29;20058;-63
2021/11/15 02:37:30;;;;;;;5.22;2.38;;;;;;;13.52;83.61;100983.41;4953636;29;20428;-63
2021/11/15 02:40:20;;;;;;;3.72;2.05;;;;;;;13.53;83.63;100988.56;4939237;29;20051;-64
2021/11/15 02:43:05;;;;;;;4.22;2.35;;;;;;;13.49;84.03;100984.88;4953152;29;20404;-65
2021/11/15 02:45:50;;;;;;;;;;;;;;;13.53;83.75;100988.56;4940769;29;20209;-65
2021/11/15 02:48:35;;;;;;;2.97;1.85;;;;;;;13.53;83.98;100985.03;4934530;29;19915;-64
2021/11/15 02:51:21;;;;;;;3.67;2.33;;;;;;;13.51;84.12;100982.63;4934336;29;20050;-64
2021/11/15 02:54:06;;;;;;;4.68;2.53;;;;;;;13.51;84.06;100985.34;4941227;29;20046;-65
2021/11/15 02:56:52;;;;;;;3.67;2.65;;;;;;;13.47;83.66;100976.22;4921704;29;20067;-64
2021/11/15 02:59:36;;;;;;;6.75;1.95;;;;;;;13.50;83.13;100981.03;4934337;29;20075;-65
2021/11/15 03:02:23;;;;;;;1.98;1.52;;;;;;;13.50;82.76;100983.78;4946126;29;20054;-64
2021/11/15 03:05:08;;;;;;;3.47;2.38;;;;;;;13.51;82.75;100979.88;4953436;29;20050;-64
2021/11/15 03:07:53;;;;;;;;;;;;;;;13.44;80.03;100987.81;4934626;29;20051;-66
2021/11/15 03:10:40;;;;;;;3.72;2.15;;;;;;;13.34;76.20;100987.34;4934178;29;19922;-67
2021/11/15 03:13:29;;;;;;;4.75;3.45;;;;;;;13.34;76.30;100992.81;4934763;29;20512;-66
2021/11/15 03:16:14;;;;;;;4.45;3.40;;;;;;;13.32;77.40;100990.41;4951101;29;20062;-64
2021/11/15 03:18:59;;;;;;;6.97;3.25;;;;;;;13.30;76.34;100997.34;4956874;29;20511;-65
2021/11/15 03:21:44;;;;;;;4.70;2.53;;;;;;;13.27;76.52;100990.59;4956627;29;20054;-65
2021/11/15 03:24:31;;;;;;;2.85;2.08;;;;;;;13.33;78.78;100986.56;4956875;29;20050;-65
2021/11/15 03:27:16;;;;;;;3.42;2.80;;;;;;;13.39;80.08;100984.44;4956484;29;20062;-65
2021/11/15 03:30:04;;;;;;;4.60;2.90;;;;;;;13.40;81.29;100975.94;4956532;29;20054;-65
2021/11/15 03:32:50;;;;;;;1.92;1.58;;;;;;;13.42;81.91;100968.19;4956459;29;20066;-63
2021/11/15 03:35:35;;;;;;;3.65;2.08;;;;;;;13.42;82.02;100962.72;4956270;29;20063;-64
2021/11/15 03:38:20;;;;;;;3.28;2.10;;;;;;;13.44;82.80;100965.16;4956348;29;20058;-64
2021/11/15 03:41:05;;;;;;;;;;;;;;;13.44;82.32;100957.75;4941425;29;20066;-64
2021/11/15 03:43:52;;;;;;;3.65;2.30;;;;;;;13.43;82.77;100969.81;4937265;29;20296;-65
2021/11/15 03:46:38;;;;;;;5.80;2.28;;;;;;;13.41;81.90;100966.59;4937065;29;20050;-65
2021/11/15 03:49:23;;;;;;;2.97;2.40;;;;;;;13.43;82.14;100966.28;4937086;29;20108;-66
2021/11/15 03:52:08;;;;;;;6.45;3.83;;;;;;;13.43;82.20;100964.34;4936993;29;20435;-66
2021/11/15 03:54:53;;;;;;;4.15;2.78;;;;;;;13.44;82.58;100957.75;4936926;29;20054;-66
2021/11/15 03:57:38;;;;;;;4.32;2.30;;;;;;;13.47;81.75;100961.75;4922620;29;20429;-64
2021/11/15 04:00:27;;;;;;;2.08;1.63;;;;;;;13.48;81.24;100961.44;4936898;29;20132;-63
2021/11/15 04:03:20;;;;;;;3.72;2.72;;;;;;;13.48;80.87;100950.50;4936690;29;20055;-64
2021/11/15 04:06:24;;;;;;;3.40;2.28;;;;;;;13.50;81.41;100952.91;4936680;29;20520;-63
2021/11/15 04:09:10;;;;;;;3.90;2.42;;;;;;;13.47;81.37;100948.88;4937050;29;20054;-63
2021/11/15 04:11:55;;;;;;;2.70;2.08;;;;;;;13.47;81.36;100954.34;4936701;29;20070;-63
2021/11/15 04:14:40;;;;;;;;;;;;;;;13.49;80.54;100951.31;4937245;29;20051;-63
2021/11/15 04:17:26;;;;;;;5.70;3.10;;;;;;;13.46;79.56;100949.25;4936420;29;19922;-63
2021/11/15 04:20:15;;;;;;;1.67;1.20;;;;;;;13.48;79.19;100960.63;4936669;29;20520;-65
2021/11/15 04:23:00;;;;;;;3.60;2.53;;;;;;;13.43;78.53;100966.28;4936565;29;20051;-65
2021/11/15 04:25:44;;;;;;;;;;;;;;;13.46;78.66;100962.91;4921912;29;20055;-66
2021/11/15 04:28:29;;;;;;;6.25;2.15;;;;;;;13.41;78.52;100965.81;4936422;29;19915;-65
2021/11/15 04:31:14;;;;;;;;;;;;;;;13.44;77.85;100965.16;4936702;29;20055;-64
2021/11/15 04:33:59;;;;;;;3.08;2.78;;;;;;;13.40;76.94;100975.94;4936266;29;20372;-65
2021/11/15 04:36:44;;;;;;;;;;;;;;;13.43;77.46;100972.53;4924630;29;20065;-66
2021/11/15 04:39:29;;;;;;;4.47;2.65;;;;;;;13.44;78.61;100970.59;4938795;29;19914;-66
2021/11/15 04:42:14;;;;;;;7.00;2.22;;;;;;;13.43;79.22;100964.34;4955346;29;20046;-65
2021/11/15 04:44:59;;;;;;;;;;;;;;;13.44;78.85;100965.94;4986843;23;20050;-80
2021/11/15 04:47:44;;;;;;;2.37;1.87;;;;;;;13.43;78.58;100961.59;4952878;28;19918;-81
2021/11/15 04:50:29;;;;;;;;;;;;;;;13.48;79.80;100960.63;4988924;28;20049;-81
2021/11/15 04:53:14;;;;;;;4.90;3.10;;;;;;;13.45;78.08;100953.09;4984572;28;19914;-80
2021/11/15 04:55:59;;;;;;;;;;;;;;;13.51;78.44;100959.97;4974105;28;20437;-80
2021/11/15 04:58:44;;;;;;;3.53;2.35;;;;;;;13.48;78.50;100960.63;4983308;28;19914;-82
2021/11/15 05:01:29;;;;;;;4.45;2.67;;;;;;;13.44;77.17;100955.03;4954709;28;20101;-82
2021/11/15 05:04:14;;;;;;;3.35;2.53;;;;;;;13.45;78.31;100961.28;4979314;28;20066;-82
2021/11/15 05:06:58;;;;;;;;;;;;;;;13.47;78.21;100962.56;4976220;28;20053;-82
2021/11/15 05:09:43;;;;;;;3.65;2.47;;;;;;;13.51;79.24;100965.44;4970998;28;19914;-81
2021/11/15 05:12:32;;;;;;;3.08;1.85;;;;;;;13.49;79.14;100965.75;4971632;28;20118;-82
2021/11/15 05:15:18;;;;;;;3.83;2.40;;;;;;;13.49;79.51;100968.50;4976832;28;20409;-81
2021/11/15 05:18:03;;;;;;;4.50;2.60;;;;;;;13.48;78.63;100979.75;4980003;28;20414;-82
2021/11/15 05:20:48;;;;;;;5.50;2.72;;;;;;;13.47;79.33;100969.94;4954484;28;20046;-81
2021/11/15 05:23:35;;;;;;;;;;;;;;;13.50;78.93;100974.78;4971710;28;20061;-82
2021/11/15 05:26:22;;;;;;;3.72;2.28;;;;;;;13.52;80.18;100983.41;4955684;28;19917;-81
2021/11/15 05:29:07;;;;;;;4.15;2.28;;;;;;;13.47;80.05;100973.47;4978471;28;20049;-82
2021/11/15 05:31:52;;;;;;;7.47;2.53;;;;;;;13.47;79.63;100989.88;4976216;28;20050;-82
2021/11/15 05:34:37;;;;;;;4.60;3.00;;;;;;;13.47;79.28;100987.13;4964640;28;20069;-82
2021/11/15 05:37:22;;;;;;;5.22;3.47;;;;;;;13.45;78.99;100988.59;4957053;28;20049;-81
2021/11/15 05:40:08;;;;;;;3.30;2.22;;;;;;;13.49;79.91;100993.09;4965702;28;20050;-82
2021/11/15 05:42:54;;;;;;;5.82;3.33;;;;;;;13.51;79.43;100998.22;4967503;28;20046;-83
2021/11/15 05:45:40;;;;;;;3.63;2.53;;;;;;;13.48;79.62;100998.88;4975033;28;20062;-81
2021/11/15 05:48:25;;;;;;;4.97;2.97;;;;;;;13.53;78.85;100998.69;4963109;28;20520;-81
2021/11/15 05:51:09;;;;;;;;;;;;;;;13.54;79.70;101001.09;4964372;28;20058;-81
2021/11/15 05:53:55;;;;;;;3.25;2.58;;;;;;;13.49;78.89;100998.56;4980387;28;19914;-81
2021/11/15 05:56:40;;;;;;;6.93;3.90;;;;;;;13.47;78.90;101009.00;4978628;28;20045;-81
2021/11/15 05:59:27;;;;;;;;;;;;;;;13.48;79.17;101021.53;4969828;28;20054;-82
2021/11/15 06:02:12;;;;;;;6.32;3.15;;;;;;;13.45;79.60;101019.47;4978117;28;19921;-82
2021/11/15 06:04:57;;;;;;;;;;;;;;;13.48;80.48;101016.06;4980726;28;20050;-82
2021/11/15 06:07:41;;;;;;;3.80;2.92;;;;;;;13.47;80.47;101025.38;4972324;28;19914;-82
2021/11/15 06:10:26;;;;;;;6.10;3.53;;;;;;;13.47;80.94;101019.91;4971995;28;20050;-82
2021/11/15 06:13:12;;;;;;;1.77;1.33;;;;;;;13.49;81.41;101025.88;4972804;28;20049;-81
2021/11/15 06:15:57;;;;;;;5.30;3.20;;;;;;;13.49;80.62;101025.06;4959517;28;20053;-81
2021/11/15 06:18:43;;;;;;;;;;;;;;;13.50;80.18;101030.22;4978706;28;20050;-81
2021/11/15 06:21:28;;;;;;;4.95;3.28;;;;;;;13.51;79.02;101025.56;4963539;28;19914;-81
2021/11/15 06:24:13;;;;;;;3.95;2.80;;;;;;;13.55;79.96;101016.38;4979729;28;20061;-81
2021/11/15 06:26:58;;;;;;;5.63;3.25;;;;;;;13.58;79.26;101020.38;4978804;28;20066;-80
2021/11/15 06:29:45;;;;;;;7.72;3.30;;;;;;;13.59;79.20;101020.03;4982955;28;20432;-81
2021/11/15 06:32:30;;;;;;;4.75;3.00;;;;;;;13.60;80.04;101018.94;4967318;28;20107;-81
2021/11/15 06:35:15;;;;;;;5.00;2.78;;;;;;;13.61;80.40;101031.44;4977835;28;20050;-80
2021/11/15 06:38:00;;;;;;;4.88;3.25;;;;;;;13.59;80.60;101038.38;4977817;28;20049;-82
2021/11/15 06:40:45;;;;;;;9.77;3.28;;;;;;;13.59;80.90;101035.63;4973424;28;20050;-81
2021/11/15 06:43:30;;;;;;;9.95;3.45;;;;;;;13.58;79.84;101026.63;4973724;28;20425;-81
2021/11/15 06:46:15;;;;;;;;;;;;;;;13.67;78.72;101041.06;4978396;28;20049;-80
2021/11/15 06:49:00;;;;;;;5.03;3.22;;;;;;;13.65;79.94;101037.06;4980657;28;19918;-81
2021/11/15 06:51:46;;;;;;;3.42;1.85;;;;;;;13.64;81.53;101044.47;4969868;28;20050;-82
2021/11/15 06:54:31;;;;;;;9.05;3.17;;;;;;;13.62;81.24;101054.09;4983415;28;20050;-82
2021/11/15 06:57:16;;;;;;;;;;;;;;;13.66;80.50;101055.84;4959395;28;20054;-81
2021/11/15 07:00:01;;;;;;;6.22;3.47;;;;;;;13.62;79.53;101067.75;4957994;28;20288;-81
2021/11/15 07:02:46;;;;;;;9.55;3.33;;;;;;;13.66;79.20;101072.25;4959570;28;20067;-81
2021/11/15 07:05:31;;;;;;;9.05;2.95;;;;;;;13.66;80.33;101076.94;4980644;28;20058;-81
2021/11/15 07:08:16;;;;;;;7.55;3.47;;;;;;;13.65;80.59;101076.13;4975120;28;20062;-81
2021/11/15 07:11:01;;;;;;;;;;;;;;;13.66;80.41;101076.94;4963023;28;20046;-81
2021/11/15 07:13:45;;;;;;;10.57;3.92;;;;;;;13.65;79.56;101080.78;4957302;28;20472;-81
2021/11/15 07:16:30;;;;;;;10.63;3.63;;;;;;;13.65;79.13;101076.13;4973264;28;20050;-81
2021/11/15 07:19:15;;;;;;;7.75;3.95;;;;;;;13.69;78.12;101090.75;4965385;28;20039;-82
2021/11/15 07:22:00;;;;;;;;;;;;;;;13.69;78.72;101088.00;4953539;28;20529;-81
2021/11/15 07:24:46;;;;;;;7.03;4.10;;;;;;;13.66;76.92;101099.56;4963092;28;19949;-81
2021/11/15 07:27:31;;;;;;;7.32;4.72;;;;;;;13.68;77.39;101097.34;4947635;28;20058;-81
2021/11/15 07:30:16;;;;;;;7.47;3.63;;;;;;;13.70;76.73;101094.28;4974060;28;20054;-81
2021/11/15 07:33:02;;;;;;;7.35;3.72;;;;;;;13.71;78.29;101096.66;4967838;28;20046;-81
2021/11/15 07:35:48;;;;;;;6.50;3.20;;;;;;;13.70;77.71;101092.34;4967175;28;20077;-81
2021/11/15 07:38:33;;;;;;;12.80;3.78;;;;;;;13.75;78.18;101093.28;4980971;28;20043;-82
2021/11/15 07:41:18;;;;;;;5.85;3.92;;;;;;;13.76;77.33;101098.44;4954068;29;20116;-82
2021/11/15 07:44:03;;;;;;;;;;;;;;;13.81;77.63;101094.72;4971129;28;20115;-81
2021/11/15 07:46:48;;;;;;;8.88;4.43;;;;;;;13.77;77.23;101088.28;5001928;28;20300;-81
2021/11/15 07:49:34;;;;;;;10.90;3.67;;;;;;;13.79;77.93;101096.97;4975573;28;20516;-81
2021/11/15 07:52:19;;;;;;;7.20;3.42;;;;;;;13.76;77.67;101086.72;4987367;28;20054;-81
2021/11/15 07:55:06;;;;;;;8.13;3.53;;;;;;;13.76;78.32;101097.63;4975744;28;20053;-81
2021/11/15 07:57:51;;;;;;;5.78;4.00;;;;;;;13.78;76.43;101100.84;4974687;28;20126;-81
2021/11/15 08:00:38;;;;;;;;;;;;;;;13.84;76.92;101094.88;4973269;28;20053;-81
2021/11/15 08:03:22;;;;;;;5.18;3.50;;;;;;;13.81;76.68;101087.34;4986226;28;19922;-81
2021/11/15 08:06:15;;;;;;;10.85;4.40;;;;;;;13.85;75.50;101099.22;4983451;28;20057;-80
2021/11/15 08:09:00;;;;;;;12.45;3.78;;;;;;;13.84;74.98;101100.34;4986689;28;20050;-81
2021/11/15 08:11:49;;;;;;;11.32;4.97;;;;;;;13.90;75.00;101109.16;4974219;28;20044;-81
2021/11/15 08:14:39;;;;;;;6.97;4.28;;;;;;;13.86;75.74;101110.94;4980781;28;20508;-81
2021/11/15 08:17:24;;;;;;;6.95;4.07;;;;;;;13.85;75.45;101107.41;4977931;28;20058;-81
2021/11/15 08:20:34;;;;;;;6.80;3.40;;;;;;;13.91;74.74;101119.78;4982745;28;20053;-81
2021/11/15 08:23:20;;;;;;;6.18;4.38;;;;;;;13.91;74.90;101113.50;4965471;28;20066;-82
2021/11/15 08:26:26;;;;;;;9.70;5.25;;;;;;;13.89;75.49;101113.03;4959690;28;20079;-82
2021/11/15 08:29:13;;;;;;;8.23;3.90;;;;;;;13.85;77.43;101115.59;4955659;28;20118;-81
2021/11/15 08:32:05;;;;;;;16.00;3.90;;;;;;;13.95;75.14;101117.19;4966056;28;20062;-81
2021/11/15 08:34:55;;;;;;;9.75;6.18;;;;;;;14.01;69.25;101121.34;4969184;28;20050;-81
2021/11/15 08:38:15;;;;;;;9.27;5.15;;;;;;;14.08;68.84;101116.94;4985867;28;20065;-80
2021/11/15 08:41:00;;;;;;;16.42;6.10;;;;;;;14.11;70.39;101131.91;4977050;28;20057;-80
2021/11/15 08:43:46;;;;;;;10.30;5.32;;;;;;;14.10;66.48;101131.09;4998263;28;20449;-81
2021/11/15 08:46:32;;;;;;;13.32;5.63;;;;;;;14.34;67.91;101133.25;4983605;28;20042;-81
2021/11/15 08:49:19;;;;;;;16.25;6.30;;;;;;;14.47;67.63;101134.97;4982807;28;20053;-81
2021/11/15 08:52:05;;;;;;;15.88;6.93;;;;;;;14.60;66.36;101132.31;4974324;28;20413;-80
2021/11/15 08:54:51;;;;;;;13.82;5.88;;;;;;;14.61;65.32;101128.44;4980132;28;20046;-79
2021/11/15 08:57:37;;;;;;;21.85;7.35;;;;;;;14.70;65.54;101126.44;4987782;28;20065;-80
2021/11/15 09:00:23;;;;;;;20.75;8.18;;;;;;;14.59;65.51;101142.47;4982520;28;20050;-81
2021/11/15 09:03:07;;;;;;;15.10;7.72;;;;;;;14.43;65.58;101139.50;4972095;28;20034;-80
2021/11/15 09:05:52;;;;;;;23.23;11.07;;;;;;;14.37;65.60;101145.50;4968678;28;20050;-82
2021/11/15 09:08:38;;;;;;;20.45;9.82;;;;;;;14.32;65.91;101151.94;4955913;28;20035;-82
2021/11/15 09:11:23;;;;;;;26.35;9.80;;;;;;;14.31;64.18;101141.31;4964123;28;20055;-81
2021/11/15 09:14:08;;;;;;;11.32;5.60;;;;;;;14.36;64.31;101154.81;4954240;28;20038;-80
2021/11/15 09:16:53;;;;;;;;;;;;;;;14.48;64.50;101168.59;4966253;28;20054;-81
2021/11/15 09:19:38;;;;;;;9.00;5.70;;;;;;;14.28;63.27;101172.84;4949583;28;19914;-80
2021/11/15 09:22:23;;;;;;;15.10;8.68;;;;;;;14.19;64.66;101177.56;4967479;28;20050;-79
2021/11/15 09:25:09;;;;;;;;;;;;;;;14.33;65.71;101185.53;4951363;28;20051;-81
2021/11/15 09:27:55;;;;;;;19.75;10.15;;;;;;;14.27;65.88;101195.09;4963133;28;19914;-81
2021/11/15 09:30:41;;;;;;;;;;;;;;;14.13;64.49;101200.75;4955517;28;20501;-81
2021/11/15 09:33:26;;;;;;;22.10;11.93;;;;;;;14.19;67.23;101204.91;4985569;28;19914;-80
2021/11/15 09:36:11;;;;;;;;;;;;;;;14.12;66.16;101212.81;4964782;28;20047;-80
2021/11/15 09:38:58;;;;;;;13.63;7.80;;;;;;;13.92;65.39;101200.66;4970609;28;19918;-79
2021/11/15 09:41:45;;;;;;;27.77;12.85;;;;;;;14.18;67.84;101197.03;4965707;28;20038;-80
2021/11/15 09:44:31;;;;;;;19.27;8.95;;;;;;;14.03;65.47;101196.44;4962457;28;20051;-81
2021/11/15 09:47:16;;;;;;;20.35;9.68;;;;;;;14.07;66.75;101207.50;4956805;28;20038;-80
2021/11/15 09:50:02;;;;;;;;;;;;;;;13.87;66.26;101213.69;4957088;28;20417;-81
2021/11/15 09:52:48;;;;;;;23.00;11.10;;;;;;;13.83;66.45;101216.28;4967096;28;20303;-80
2021/11/15 09:55:33;;;;;;;21.85;10.05;;;;;;;13.89;67.37;101222.38;4961166;28;20039;-80
2021/11/15 09:58:19;;;;;;;13.13;8.57;;;;;;;13.66;66.13;101213.59;4982472;28;20035;-80
2021/11/15 10:01:05;;;;;;;25.30;13.55;;;;;;;13.80;68.32;101216.94;4950976;28;20050;-80
2021/11/15 10:03:50;;;;;;;28.67;12.55;;;;;;;13.82;67.32;101216.59;4976063;28;20042;-81
2021/11/15 10:06:35;;;;;;;32.88;15.20;;;;;;;13.76;68.63;101212.44;4974033;28;20047;-81
2021/11/15 10:09:27;;;;;;;;;;;;;;;13.65;67.51;101211.97;4974379;28;20046;-81
2021/11/15 10:12:14;;;;;;;28.13;12.27;;;;;;;13.57;68.78;101219.03;4963334;28;20316;-81
2021/11/15 10:15:03;;;;;;;13.98;8.40;;;;;;;13.60;67.20;101204.75;4965280;28;20031;-83
2021/11/15 10:17:47;;;;;;;22.50;9.18;;;;;;;13.33;67.01;101204.25;4946725;29;20047;-85
2021/11/15 10:20:46;;;;;;;56.20;16.27;;;;;;;13.30;67.29;101211.19;4948954;28;20050;-81
2021/11/15 10:23:53;;;;;;;19.13;9.15;;;;;;;13.13;66.78;101214.69;4965273;28;20046;-82
2021/11/15 10:26:46;;;;;;;15.95;9.18;;;;;;;13.11;67.20;101218.84;4962165;28;20043;-81
2021/11/15 10:29:34;;;;;;;14.02;7.65;;;;;;;13.07;66.57;101228.78;4976855;28;20065;-82
2021/11/15 10:32:29;;;;;;;12.45;6.72;;;;;;;13.06;66.67;101229.91;4962563;28;20047;-82
2021/11/15 10:35:14;;;;;;;16.50;7.68;;;;;;;13.10;67.31;101234.44;4964851;28;20115;-82
2021/11/15 10:37:59;;;;;;;;;;;;;;;13.10;66.87;101233.63;4953714;28;20054;-81
2021/11/15 10:40:44;;;;;;;18.23;9.30;;;;;;;13.07;66.23;101217.88;4962105;28;19914;-81
2021/11/15 10:43:32;;;;;;;13.98;7.63;;;;;;;13.18;66.28;101224.66;4955149;28;20050;-81
2021/11/15 10:46:28;;;;;;;20.10;9.40;;;;;;;13.23;66.90;101222.59;4952278;28;20039;-82
2021/11/15 10:49:19;;;;;;;18.60;8.18;;;;;;;13.33;66.84;101228.84;4963740;28;20047;-82
2021/11/15 10:52:09;;;;;;;15.68;9.98;;;;;;;13.28;66.69;101222.44;4954096;28;20050;-81
2021/11/15 10:55:02;;;;;;;17.60;9.70;;;;;;;13.37;67.14;101221.59;4978598;28;20043;-81
2021/11/15 10:57:49;;;;;;;18.33;9.45;;;;;;;13.37;67.22;101213.41;4962844;28;20047;-82
2021/11/15 11:00:38;;;;;;;16.42;9.90;;;;;;;13.39;67.36;101208.44;4967266;28;20054;-82
2021/11/15 11:03:26;;;;;;;19.45;8.90;;;;;;;13.41;67.25;101212.44;4951528;28;20059;-82
2021/11/15 11:06:15;;;;;;;21.58;9.95;;;;;;;13.43;66.89;101207.47;4955584;28;20039;-81
2021/11/15 11:09:00;;;;;;;15.23;8.10;;;;;;;13.45;66.22;101201.69;4966667;28;20047;-81
2021/11/15 11:11:45;;;;;;;18.17;10.35;;;;;;;13.46;66.94;101209.56;4977553;28;20054;-81
2021/11/15 11:14:29;;;;;;;15.52;8.68;;;;;;;13.50;66.96;101202.34;4962912;28;20042;-81
2021/11/15 11:17:14;;;;;;;;;;;;;;;13.49;65.74;101203.47;4962398;28;20049;-81
2021/11/15 11:20:24;;;;;;;14.60;8.70;;;;;;;13.54;65.86;101203.31;4945556;29;20300;-82
2021/11/15 11:26:21;;;;;;;16.02;9.70;;;;;;;13.58;65.26;101206.19;4956840;28;20039;-82
2021/11/15 11:29:24;;;;;;;20.13;10.40;;;;;;;13.59;64.81;101200.41;4962782;28;20035;-82
2021/11/15 11:32:16;;;;;;;14.30;8.52;;;;;;;13.60;64.90;101199.28;4955566;28;20051;-81
2021/11/15 11:35:03;;;;;;;15.95;8.85;;;;;;;13.61;64.37;101192.66;4952355;28;20051;-81
2021/11/15 11:37:48;;;;;;;18.90;10.27;;;;;;;13.61;64.94;101195.41;4961818;28;20038;-83
2021/11/15 11:40:32;;;;;;;21.40;11.80;;;;;;;13.61;65.52;101180.97;4955208;28;20042;-82
2021/11/15 11:43:17;;;;;;;22.90;12.80;;;;;;;13.66;64.79;101186.25;4947178;28;20039;-82
2021/11/15 11:46:03;;;;;;;20.40;8.65;;;;;;;13.67;65.04;101193.31;4979973;28;20035;-83
2021/11/15 11:48:50;;;;;;;22.98;12.30;;;;;;;13.65;65.88;101199.09;4958951;28;20062;-83
2021/11/15 11:51:37;;;;;;;17.63;10.55;;;;;;;13.62;65.01;101188.81;4973491;28;20043;-83
2021/11/15 11:54:27;;;;;;;20.77;11.75;;;;;;;13.62;65.39;101186.06;4977215;28;20050;-82
2021/11/15 11:57:22;;;;;;;17.70;10.40;;;;;;;13.65;65.33;101184.63;4977049;28;20501;-81
2021/11/15 12:00:14;;;;;;;13.82;7.53;;;;;;;13.59;64.50;101185.94;4979322;28;20047;-83
2021/11/15 12:03:03;;;;;;;17.55;8.13;;;;;;;13.61;64.19;101179.00;4980297;28;20042;-82
2021/11/15 12:05:49;;;;;;;16.75;9.27;;;;;;;13.64;64.92;101183.03;4975762;28;20047;-82
2021/11/15 12:08:55;;;;;;;20.27;11.10;;;;;;;13.65;64.52;101185.44;4963664;28;20501;-82
2021/11/15 12:11:43;;;;;;;17.48;9.07;;;;;;;13.68;64.72;101182.06;4996478;28;20043;-83
2021/11/15 12:14:35;;;;;;;21.65;9.77;;;;;;;13.70;64.30;101185.28;4980656;28;20042;-82
2021/11/15 12:17:22;;;;;;;19.80;10.23;;;;;;;13.69;65.40;101180.94;4969986;28;20038;-83
2021/11/15 12:20:07;;;;;;;16.33;9.25;;;;;;;13.62;66.25;101185.28;4965043;28;20493;-83
2021/11/15 12:22:56;;;;;;;18.65;10.35;;;;;;;13.58;67.04;101182.38;4955451;28;20528;-83
2021/11/15 12:26:11;;;;;;;17.95;10.05;;;;;;;13.64;67.95;101172.09;4991280;23;20046;-63
2021/11/15 12:28:59;;;;;;;20.25;10.73;;;;;;;13.61;67.98;101175.50;4973764;28;20055;-65
2021/11/15 12:31:48;;;;;;;17.63;10.55;;;;;;;13.65;67.14;101169.06;4972881;28;20043;-63
2021/11/15 12:34:38;;;;;;;16.65;9.45;;;;;;;13.65;66.75;101179.97;4953391;28;20047;-63
2021/11/15 12:37:39;;;;;;;17.10;9.95;;;;;;;13.68;67.47;101181.25;4954261;28;20046;-62
2021/11/15 12:40:35;;;;;;;22.67;11.65;;;;;;;13.76;66.45;101174.16;4967944;28;20054;-62
2021/11/15 12:43:20;;;;;;;20.40;10.98;;;;;;;13.73;65.98;101169.34;4974527;28;20043;-62
2021/11/15 12:46:13;;;;;;;;;;;;;;;13.76;66.83;101165.97;4974230;28;20416;-61
2021/11/15 12:49:33;;;;;;;24.20;13.02;;;;;;;13.80;66.09;101164.19;4974534;28;19914;-63
2021/11/15 12:52:33;;;;;;;24.80;13.27;;;;;;;13.82;67.32;101159.97;4974350;28;20039;-62
2021/11/15 12:55:18;;;;;;;21.73;12.90;;;;;;;13.85;66.60;101156.63;4974173;28;20039;-63
2021/11/15 12:58:03;;;;;;;22.60;13.25;;;;;;;13.87;66.32;101159.00;4974633;28;20046;-62
2021/11/15 13:00:49;;;;;;;30.48;12.38;;;;;;;13.89;65.82;101156.75;4974215;28;20046;-65
2021/11/15 13:03:34;;;;;;;25.60;14.85;;;;;;;13.94;65.57;101156.59;4959673;28;20042;-64
2021/11/15 13:06:21;;;;;;;;;;;;;;;13.93;64.74;101149.50;4974201;28;20513;-62